Time;durP1;ratioP1;P1;durP2;ratioP2;P2;SDS_P1;SDS_P2;PMS_P1;PMS_P2;Temp;Humidity;BMP_temperature;BMP_pressure;BME280_temperature;BME280_humidity;BME280_pressure;Samples;Min_cycle;Max_cycle;Signal;HPM_P1;HPM_P2
2023/03/31 00:00:26;;;;;;;10.60;3.20;;;;;;;;;;5055430;28;20273;-68
2023/03/31 00:02:53;;;;;;;9.93;3.43;;;;;;;;;;5056214;28;20185;-68
2023/03/31 00:05:20;;;;;;;10.47;3.40;;;;;;;;;;5055131;28;20682;-68
2023/03/31 00:07:47;;;;;;;13.33;2.73;;;;;;;;;;5073353;28;20192;-68
2023/03/31 00:10:14;;;;;;;7.20;2.70;;;;;;;;;;5073567;28;20206;-68
2023/03/31 00:12:40;;;;;;;7.40;3.00;;;;;;;;;;5073638;28;20256;-69
2023/03/31 00:15:06;;;;;;;10.00;3.00;;;;;;;;;;5073436;28;20192;-68
2023/03/31 00:17:32;;;;;;;7.20;2.50;;;;;;;;;;5055155;28;20181;-68
2023/03/31 00:19:59;;;;;;;5.33;2.50;;;;;;;;;;5072731;28;20198;-68
2023/03/31 00:22:29;;;;;;;7.57;2.60;;;;;;;;;;5073634;28;20170;-68
2023/03/31 00:24:55;;;;;;;8.40;2.60;;;;;;;;;;5073116;28;20178;-67
2023/03/31 00:27:21;;;;;;;7.70;2.53;;;;;;;;;;5073491;28;20196;-68
2023/03/31 00:29:49;;;;;;;11.20;3.07;;;;;;;;;;5072756;28;20223;-69
2023/03/31 00:32:15;;;;;;;8.23;3.07;;;;;;;;;;5073179;28;20174;-68
2023/03/31 00:34:43;;;;;;;6.43;2.40;;;;;;;;;;5057736;28;20190;-68
2023/03/31 00:37:14;;;;;;;7.37;2.93;;;;;;;;;;5076636;28;20169;-69
2023/03/31 00:39:41;;;;;;;10.00;3.20;;;;;;;;;;5077309;28;20221;-69
2023/03/31 00:42:07;;;;;;;6.43;3.13;;;;;;;;;;5058542;28;20192;-69
2023/03/31 00:44:36;;;;;;;6.77;2.90;;;;;;;;;;5058343;28;20643;-69
2023/03/31 00:47:19;;;;;;;8.23;3.23;;;;;;;;;;5058316;28;20189;-69
2023/03/31 00:49:47;;;;;;;8.90;3.30;;;;;;;;;;5076223;28;20564;-69
2023/03/31 00:52:22;;;;;;;6.60;3.00;;;;;;;;;;5058427;28;20201;-68
2023/03/31 00:54:50;;;;;;;11.03;3.20;;;;;;;;;;5076383;28;20205;-69
2023/03/31 00:57:16;;;;;;;7.93;2.80;;;;;;;;;;5076654;28;20170;-69
2023/03/31 00:59:45;;;;;;;10.67;3.73;;;;;;;;;;5076015;28;20220;-68
2023/03/31 01:02:13;;;;;;;10.63;2.63;;;;;;;;;;5076482;28;20170;-69
2023/03/31 01:04:41;;;;;;;8.57;2.23;;;;;;;;;;5076173;28;20201;-69
2023/03/31 01:07:15;;;;;;;10.17;2.70;;;;;;;;;;5076333;28;20541;-69
2023/03/31 01:09:46;;;;;;;8.13;2.83;;;;;;;;;;5075730;28;20732;-69
2023/03/31 01:12:12;;;;;;;10.03;2.70;;;;;;;;;;5076022;28;20177;-69
2023/03/31 01:14:38;;;;;;;9.87;2.50;;;;;;;;;;5075649;28;20170;-69
2023/03/31 01:17:04;;;;;;;10.27;3.13;;;;;;;;;;5075905;28;20177;-69
2023/03/31 01:19:38;;;;;;;8.00;2.67;;;;;;;;;;5075439;28;20205;-69
2023/03/31 01:22:04;;;;;;;8.00;2.77;;;;;;;;;;5057642;28;20174;-69
2023/03/31 01:24:36;;;;;;;13.10;2.97;;;;;;;;;;5075884;28;20193;-69
2023/03/31 01:27:21;;;;;;;8.47;2.47;;;;;;;;;;5075610;28;20658;-69
2023/03/31 01:29:58;;;;;;;10.40;2.33;;;;;;;;;;5075322;28;20200;-69
2023/03/31 01:32:30;;;;;;;9.30;2.43;;;;;;;;;;5057449;28;20174;-69
2023/03/31 01:35:09;;;;;;;14.20;2.90;;;;;;;;;;5075502;28;20185;-70
2023/03/31 01:37:36;;;;;;;9.97;2.40;;;;;;;;;;5075447;28;20192;-70
2023/03/31 01:40:21;;;;;;;9.07;2.60;;;;;;;;;;5075281;28;20229;-69
2023/03/31 01:43:08;;;;;;;8.77;2.23;;;;;;;;;;5057234;28;20185;-70
2023/03/31 01:45:52;;;;;;;10.30;2.70;;;;;;;;;;5074591;28;20162;-70
2023/03/31 01:48:32;;;;;;;7.50;2.27;;;;;;;;;;5057154;28;20193;-70
2023/03/31 01:51:01;;;;;;;9.13;3.20;;;;;;;;;;5057006;28;20212;-68
2023/03/31 01:53:33;;;;;;;14.97;3.33;;;;;;;;;;5075912;28;20688;-68
2023/03/31 01:56:01;;;;;;;14.80;3.70;;;;;;;;;;5057116;28;20272;-69
2023/03/31 01:58:41;;;;;;;11.17;3.87;;;;;;;;;;5074968;28;20280;-68
2023/03/31 02:01:19;;;;;;;11.53;3.30;;;;;;;;;;5074837;28;20186;-69
2023/03/31 02:03:57;;;;;;;12.33;3.03;;;;;;;;;;5074800;28;20181;-68
2023/03/31 02:06:27;;;;;;;15.13;4.00;;;;;;;;;;5074793;28;20172;-69
2023/03/31 02:08:56;;;;;;;11.63;4.10;;;;;;;;;;5075121;28;20198;-68
2023/03/31 02:11:22;;;;;;;13.40;4.13;;;;;;;;;;5074988;28;20313;-68
2023/03/31 02:13:49;;;;;;;10.90;4.43;;;;;;;;;;5074720;28;20697;-68
2023/03/31 02:16:20;;;;;;;15.40;4.93;;;;;;;;;;5056999;28;20181;-69
2023/03/31 02:18:48;;;;;;;14.17;5.00;;;;;;;;;;5074606;28;20547;-69
2023/03/31 02:21:15;;;;;;;17.27;4.83;;;;;;;;;;5056445;28;20188;-68
2023/03/31 02:23:42;;;;;;;19.27;5.13;;;;;;;;;;5056557;28;20185;-69
2023/03/31 02:26:11;;;;;;;12.37;4.47;;;;;;;;;;5074827;28;20182;-69
2023/03/31 02:28:37;;;;;;;12.43;4.03;;;;;;;;;;5074341;28;20202;-68
2023/03/31 02:31:17;;;;;;;9.93;3.63;;;;;;;;;;5056264;28;20274;-69
2023/03/31 02:33:43;;;;;;;12.63;3.60;;;;;;;;;;5074244;28;20166;-69
2023/03/31 02:36:09;;;;;;;16.17;4.70;;;;;;;;;;5074328;28;20210;-68
2023/03/31 02:38:47;;;;;;;16.10;4.03;;;;;;;;;;5073995;28;20247;-68
2023/03/31 02:41:13;;;;;;;16.53;4.10;;;;;;;;;;5056185;28;20170;-68
2023/03/31 02:43:39;;;;;;;17.23;3.77;;;;;;;;;;5074149;28;20178;-68
2023/03/31 02:46:05;;;;;;;16.17;4.30;;;;;;;;;;5073928;28;20178;-68
2023/03/31 02:48:36;;;;;;;12.70;3.93;;;;;;;;;;5073878;28;20280;-68
2023/03/31 02:51:18;;;;;;;16.47;4.30;;;;;;;;;;5073795;28;20198;-68
2023/03/31 02:53:50;;;;;;;20.13;5.00;;;;;;;;;;5073772;28;20601;-68
2023/03/31 02:56:35;;;;;;;21.47;5.37;;;;;;;;;;5055777;28;20581;-68
2023/03/31 02:59:15;;;;;;;19.80;5.30;;;;;;;;;;5073434;28;20219;-68
2023/03/31 03:01:41;;;;;;;23.83;5.77;;;;;;;;;;5074011;28;20158;-68
2023/03/31 03:04:15;;;;;;;18.63;4.40;;;;;;;;;;5073607;28;20236;-68
2023/03/31 03:06:56;;;;;;;15.37;4.33;;;;;;;;;;5055661;28;20185;-68
2023/03/31 03:09:45;;;;;;;15.70;3.90;;;;;;;;;;5079296;23;20233;-66
2023/03/31 03:12:14;;;;;;;23.50;4.80;;;;;;;;;;5053944;28;20229;-66
2023/03/31 03:15:00;;;;;;;19.77;4.20;;;;;;;;;;5073221;28;20170;-66
2023/03/31 03:17:28;;;;;;;17.67;4.57;;;;;;;;;;5073428;28;20162;-68
2023/03/31 03:19:55;;;;;;;16.10;3.70;;;;;;;;;;5071717;28;20224;-67
2023/03/31 03:22:22;;;;;;;14.73;3.80;;;;;;;;;;5073364;28;20174;-66
2023/03/31 03:24:48;;;;;;;15.97;4.30;;;;;;;;;;5071844;28;20674;-66
2023/03/31 03:27:14;;;;;;;20.00;3.97;;;;;;;;;;5073285;28;20177;-66
2023/03/31 03:29:40;;;;;;;20.67;4.90;;;;;;;;;;5071708;28;20202;-66
2023/03/31 03:32:06;;;;;;;23.73;5.77;;;;;;;;;;5071716;28;20237;-69
2023/03/31 03:34:32;;;;;;;19.30;5.73;;;;;;;;;;5073058;28;20206;-67
2023/03/31 03:36:58;;;;;;;17.43;5.70;;;;;;;;;;5072316;28;20181;-67
2023/03/31 03:39:24;;;;;;;22.33;5.43;;;;;;;;;;5072929;28;20189;-68
2023/03/31 03:41:50;;;;;;;18.90;5.30;;;;;;;;;;5073536;28;20253;-67
2023/03/31 03:44:16;;;;;;;21.17;4.73;;;;;;;;;;5072988;28;20653;-67
2023/03/31 03:46:42;;;;;;;16.93;4.43;;;;;;;;;;5073060;28;20204;-67
2023/03/31 03:49:08;;;;;;;19.80;4.63;;;;;;;;;;5072871;28;20575;-67
2023/03/31 03:51:34;;;;;;;19.73;5.17;;;;;;;;;;5073005;28;20541;-67
2023/03/31 03:54:00;;;;;;;15.97;4.70;;;;;;;;;;5071941;28;20178;-67
2023/03/31 03:56:26;;;;;;;18.60;5.57;;;;;;;;;;5072788;28;20256;-67
2023/03/31 03:58:52;;;;;;;18.30;4.87;;;;;;;;;;5073188;28;20202;-67
2023/03/31 04:01:18;;;;;;;16.37;5.17;;;;;;;;;;5072773;28;20189;-67
2023/03/31 04:03:44;;;;;;;16.03;5.10;;;;;;;;;;5071425;28;20186;-67
2023/03/31 04:06:10;;;;;;;17.73;5.33;;;;;;;;;;5071605;28;20705;-67
2023/03/31 04:08:36;;;;;;;15.10;4.93;;;;;;;;;;5072407;28;20177;-67
2023/03/31 04:11:02;;;;;;;16.27;4.57;;;;;;;;;;5076388;28;20221;-67
2023/03/31 04:13:28;;;;;;;17.13;4.73;;;;;;;;;;5075360;28;20174;-67
2023/03/31 04:15:54;;;;;;;18.87;4.33;;;;;;;;;;5075350;28;20188;-67
2023/03/31 04:18:23;;;;;;;17.70;3.87;;;;;;;;;;5076618;28;20177;-67
2023/03/31 04:20:53;;;;;;;18.03;4.47;;;;;;;;;;5076457;28;20809;-67
2023/03/31 04:23:22;;;;;;;18.27;4.00;;;;;;;;;;5076854;28;20681;-67
2023/03/31 04:25:48;;;;;;;16.83;4.10;;;;;;;;;;5075725;28;20178;-67
2023/03/31 04:28:14;;;;;;;21.53;3.80;;;;;;;;;;5076908;28;20174;-67
2023/03/31 04:30:40;;;;;;;16.23;4.80;;;;;;;;;;5075127;28;20210;-67
2023/03/31 04:33:06;;;;;;;19.37;4.77;;;;;;;;;;5076598;28;20174;-67
2023/03/31 04:35:48;;;;;;;17.53;3.97;;;;;;;;;;5077024;28;20174;-67
2023/03/31 04:38:17;;;;;;;16.50;4.67;;;;;;;;;;5075451;28;20558;-67
2023/03/31 04:40:43;;;;;;;17.90;4.50;;;;;;;;;;5076237;28;20625;-67
2023/03/31 04:43:09;;;;;;;14.47;5.00;;;;;;;;;;5076161;28;20632;-66
2023/03/31 04:45:35;;;;;;;16.50;5.70;;;;;;;;;;5076320;28;20181;-68
2023/03/31 04:48:01;;;;;;;24.57;6.90;;;;;;;;;;5076092;28;20182;-67
2023/03/31 04:50:27;;;;;;;19.90;6.57;;;;;;;;;;5075910;28;20209;-67
2023/03/31 04:52:53;;;;;;;20.10;7.47;;;;;;;;;;5076047;28;20170;-68
2023/03/31 04:55:19;;;;;;;12.93;4.97;;;;;;;;;;5076482;28;20639;-68
2023/03/31 04:57:45;;;;;;;18.17;5.07;;;;;;;;;;5076039;28;20185;-67
2023/03/31 05:00:11;;;;;;;13.00;4.50;;;;;;;;;;5075818;28;20197;-67
2023/03/31 05:02:37;;;;;;;16.03;4.20;;;;;;;;;;5075814;28;20654;-68
2023/03/31 05:05:03;;;;;;;12.73;4.77;;;;;;;;;;5076092;28;20180;-68
2023/03/31 05:07:29;;;;;;;14.90;3.87;;;;;;;;;;5076000;28;20275;-66
2023/03/31 05:09:55;;;;;;;10.67;3.93;;;;;;;;;;5075735;28;20267;-66
2023/03/31 05:12:21;;;;;;;16.97;4.13;;;;;;;;;;5075612;28;20190;-65
2023/03/31 05:14:47;;;;;;;9.70;3.63;;;;;;;;;;5074175;28;20185;-66
2023/03/31 05:17:13;;;;;;;11.43;4.07;;;;;;;;;;5075610;28;20180;-66
2023/03/31 05:19:39;;;;;;;13.10;4.03;;;;;;;;;;5073476;28;20208;-66
2023/03/31 05:22:05;;;;;;;10.73;3.87;;;;;;;;;;5075006;28;20174;-66
2023/03/31 05:24:31;;;;;;;9.80;3.83;;;;;;;;;;5075637;28;20185;-66
2023/03/31 05:26:57;;;;;;;13.13;4.20;;;;;;;;;;5075455;28;20170;-67
2023/03/31 05:29:23;;;;;;;12.40;3.77;;;;;;;;;;5075301;28;20197;-66
2023/03/31 05:31:50;;;;;;;13.70;4.33;;;;;;;;;;5075445;28;20576;-66
2023/03/31 05:34:16;;;;;;;11.30;3.60;;;;;;;;;;5074019;28;20178;-66
2023/03/31 05:36:42;;;;;;;13.57;4.20;;;;;;;;;;5075487;28;20174;-66
2023/03/31 05:39:08;;;;;;;8.47;3.80;;;;;;;;;;5075357;28;20198;-66
2023/03/31 05:41:35;;;;;;;8.77;3.20;;;;;;;;;;5075106;28;20178;-66
2023/03/31 05:44:01;;;;;;;12.87;4.10;;;;;;;;;;5074117;28;20730;-66
2023/03/31 05:46:27;;;;;;;13.33;3.40;;;;;;;;;;5075494;28;20252;-66
2023/03/31 05:48:53;;;;;;;10.87;4.17;;;;;;;;;;5074908;28;20174;-66
2023/03/31 05:51:19;;;;;;;14.27;4.60;;;;;;;;;;5075101;28;20285;-66
2023/03/31 05:53:45;;;;;;;13.50;5.70;;;;;;;;;;5075490;28;20659;-66
2023/03/31 05:56:12;;;;;;;11.87;6.40;;;;;;;;;;5075035;28;20177;-66
2023/03/31 05:58:38;;;;;;;11.23;6.13;;;;;;;;;;5074732;28;20167;-67
2023/03/31 06:01:09;;;;;;;11.70;5.07;;;;;;;;;;5074933;28;20551;-66
2023/03/31 06:03:35;;;;;;;8.87;4.17;;;;;;;;;;5074606;28;20242;-66
2023/03/31 06:06:02;;;;;;;7.83;3.13;;;;;;;;;;5075144;28;20182;-66
2023/03/31 06:08:28;;;;;;;6.90;2.50;;;;;;;;;;5074815;28;20181;-66
2023/03/31 06:10:54;;;;;;;8.93;2.80;;;;;;;;;;5074360;28;20217;-66
2023/03/31 06:13:21;;;;;;;7.57;2.50;;;;;;;;;;5073557;28;20782;-66
2023/03/31 06:15:57;;;;;;;9.47;3.13;;;;;;;;;;5074693;28;20540;-66
2023/03/31 06:18:23;;;;;;;5.67;2.33;;;;;;;;;;5074228;28;20178;-66
2023/03/31 06:20:50;;;;;;;6.60;2.90;;;;;;;;;;5074224;28;20334;-66
2023/03/31 06:23:16;;;;;;;5.87;2.30;;;;;;;;;;5074761;28;20181;-64
2023/03/31 06:25:42;;;;;;;3.40;2.00;;;;;;;;;;5074248;28;20178;-66
2023/03/31 06:28:08;;;;;;;8.90;2.70;;;;;;;;;;5074281;28;20550;-66
2023/03/31 06:30:35;;;;;;;5.70;2.60;;;;;;;;;;5074091;28;20306;-66
2023/03/31 06:33:01;;;;;;;9.40;3.27;;;;;;;;;;5072650;28;20205;-66
2023/03/31 06:35:26;;;;;;;8.40;2.87;;;;;;;;;;5072691;28;20282;-66
2023/03/31 06:37:52;;;;;;;6.27;2.60;;;;;;;;;;5074281;28;20539;-66
2023/03/31 06:40:18;;;;;;;7.63;2.73;;;;;;;;;;5073760;28;20193;-66
2023/03/31 06:42:44;;;;;;;5.07;2.63;;;;;;;;;;5072438;28;20273;-66
2023/03/31 06:45:10;;;;;;;7.27;2.57;;;;;;;;;;5074448;28;20270;-66
2023/03/31 06:47:40;;;;;;;9.40;2.77;;;;;;;;;;5074072;28;20264;-66
2023/03/31 06:50:07;;;;;;;12.10;3.00;;;;;;;;;;5073974;28;20194;-66
2023/03/31 06:52:33;;;;;;;6.57;2.97;;;;;;;;;;5074020;28;20678;-66
2023/03/31 06:54:59;;;;;;;6.33;3.50;;;;;;;;;;5073692;28;20170;-64
2023/03/31 06:57:25;;;;;;;10.70;3.40;;;;;;;;;;5072598;28;20181;-68
2023/03/31 06:59:51;;;;;;;12.20;3.40;;;;;;;;;;5072405;28;20241;-66
2023/03/31 07:02:17;;;;;;;7.43;3.40;;;;;;;;;;5072250;28;20208;-65
2023/03/31 07:04:43;;;;;;;9.77;3.70;;;;;;;;;;5073472;28;20651;-68
2023/03/31 07:07:09;;;;;;;7.07;3.57;;;;;;;;;;5073454;28;20651;-66
2023/03/31 07:09:35;;;;;;;12.93;3.73;;;;;;;;;;5073351;28;20216;-65
2023/03/31 07:12:04;;;;;;;9.77;3.80;;;;;;;;;;5073426;28;20209;-68
2023/03/31 07:14:30;;;;;;;11.20;3.93;;;;;;;;;;5073441;28;20177;-66
2023/03/31 07:16:56;;;;;;;9.27;3.70;;;;;;;;;;5073328;28;20174;-65
2023/03/31 07:19:22;;;;;;;14.57;4.27;;;;;;;;;;5071959;28;20224;-65
2023/03/31 07:21:48;;;;;;;11.53;4.90;;;;;;;;;;5073311;28;20623;-67
2023/03/31 07:24:13;;;;;;;14.53;6.53;;;;;;;;;;5071962;28;20186;-66
2023/03/31 07:26:39;;;;;;;14.43;6.20;;;;;;;;;;5073335;28;20188;-66
2023/03/31 07:29:05;;;;;;;10.90;5.87;;;;;;;;;;5071825;28;20205;-66
2023/03/31 07:31:31;;;;;;;11.57;4.87;;;;;;;;;;5073673;28;20730;-66
2023/03/31 07:33:57;;;;;;;15.77;4.80;;;;;;;;;;5073207;28;20182;-66
2023/03/31 07:36:23;;;;;;;7.83;3.70;;;;;;;;;;5073216;28;20201;-67
2023/03/31 07:38:49;;;;;;;10.73;4.03;;;;;;;;;;5071842;28;20173;-67
2023/03/31 07:41:17;;;;;;;10.80;4.60;;;;;;;;;;5073033;28;20182;-68
2023/03/31 07:43:43;;;;;;;11.57;3.80;;;;;;;;;;5072541;28;20174;-67
2023/03/31 07:46:17;;;;;;;9.80;3.27;;;;;;;;;;5073849;28;20191;-67
2023/03/31 07:48:45;;;;;;;10.73;3.70;;;;;;;;;;5072982;28;20200;-66
2023/03/31 07:51:11;;;;;;;8.30;3.97;;;;;;;;;;5073011;28;20198;-67
2023/03/31 07:53:37;;;;;;;11.30;3.63;;;;;;;;;;5072989;28;20169;-67
2023/03/31 07:56:02;;;;;;;15.33;4.07;;;;;;;;;;5071623;28;20205;-67
2023/03/31 07:58:28;;;;;;;10.47;4.10;;;;;;;;;;5073248;28;20204;-67
2023/03/31 08:00:55;;;;;;;21.50;12.13;;;;;;;;;;5072854;28;20193;-65
2023/03/31 08:03:21;;;;;;;13.30;6.53;;;;;;;;;;5071562;28;20272;-64
2023/03/31 08:05:47;;;;;;;12.03;5.50;;;;;;;;;;5072877;28;20212;-64
2023/03/31 08:08:13;;;;;;;9.30;4.60;;;;;;;;;;5072798;28;20232;-65
2023/03/31 08:10:39;;;;;;;9.50;4.40;;;;;;;;;;5073090;28;20239;-65
2023/03/31 08:13:05;;;;;;;12.70;5.10;;;;;;;;;;5073279;28;20185;-67
2023/03/31 08:15:31;;;;;;;12.17;7.37;;;;;;;;;;5075244;28;20203;-67
2023/03/31 08:17:57;;;;;;;14.40;7.20;;;;;;;;;;5078344;28;20170;-64
2023/03/31 08:20:23;;;;;;;9.97;7.10;;;;;;;;;;5077842;28;20189;-67
2023/03/31 08:22:49;;;;;;;12.50;5.07;;;;;;;;;;5078219;28;20181;-67
2023/03/31 08:25:15;;;;;;;10.87;4.03;;;;;;;;;;5073027;28;20178;-67
2023/03/31 08:27:41;;;;;;;14.17;3.20;;;;;;;;;;5072698;28;20174;-67
2023/03/31 08:30:08;;;;;;;8.87;3.80;;;;;;;;;;5072537;28;20549;-66
2023/03/31 08:32:34;;;;;;;10.00;3.20;;;;;;;;;;5073074;28;20178;-66
2023/03/31 08:35:00;;;;;;;10.80;3.67;;;;;;;;;;5071387;28;20221;-66
2023/03/31 08:37:27;;;;;;;13.03;4.60;;;;;;;;;;5072857;28;20640;-66
2023/03/31 08:39:53;;;;;;;14.23;4.80;;;;;;;;;;5072833;28;20198;-66
2023/03/31 08:42:24;;;;;;;14.70;5.07;;;;;;;;;;5072644;28;20174;-67
2023/03/31 08:45:03;;;;;;;14.30;4.57;;;;;;;;;;5072792;28;20154;-66
2023/03/31 08:47:30;;;;;;;13.60;5.27;;;;;;;;;;5072518;28;20178;-68
2023/03/31 08:50:01;;;;;;;16.90;5.20;;;;;;;;;;5072651;28;20198;-67
2023/03/31 08:52:33;;;;;;;14.73;3.10;;;;;;;;;;5071203;28;20200;-67
2023/03/31 08:55:01;;;;;;;12.23;3.60;;;;;;;;;;5071243;28;20174;-66
2023/03/31 08:57:40;;;;;;;16.00;3.37;;;;;;;;;;5075863;28;20174;-68
2023/03/31 09:00:12;;;;;;;13.77;4.10;;;;;;;;;;5074668;28;20204;-67
2023/03/31 09:02:54;;;;;;;12.73;3.97;;;;;;;;;;5076310;28;20231;-67
2023/03/31 09:05:20;;;;;;;13.97;3.37;;;;;;;;;;5076032;28;20173;-66
2023/03/31 09:07:54;;;;;;;10.40;3.17;;;;;;;;;;5076662;28;20647;-67
2023/03/31 09:10:33;;;;;;;15.73;4.13;;;;;;;;;;5075766;28;20218;-66
2023/03/31 09:12:58;;;;;;;14.17;4.47;;;;;;;;;;5075809;28;20177;-68
2023/03/31 09:15:29;;;;;;;13.57;4.17;;;;;;;;;;5075780;28;20188;-66
2023/03/31 09:17:57;;;;;;;14.83;3.80;;;;;;;;;;5076045;28;20656;-66
2023/03/31 09:20:35;;;;;;;18.73;4.77;;;;;;;;;;5097260;22;20221;-70
2023/03/31 09:23:17;;;;;;;14.83;3.97;;;;;;;;;;5057604;28;20178;-70
2023/03/31 09:25:44;;;;;;;12.20;4.57;;;;;;;;;;5075581;28;20523;-71
2023/03/31 09:28:18;;;;;;;18.37;4.47;;;;;;;;;;5075681;28;20174;-70
2023/03/31 09:30:48;;;;;;;15.97;4.80;;;;;;;;;;5075269;28;20206;-70
2023/03/31 09:33:16;;;;;;;13.40;4.50;;;;;;;;;;5057305;28;20184;-70
2023/03/31 09:35:42;;;;;;;14.73;4.20;;;;;;;;;;5075534;28;20185;-69
2023/03/31 09:38:12;;;;;;;13.00;3.37;;;;;;;;;;5075586;28;20174;-70
2023/03/31 09:40:38;;;;;;;14.03;3.77;;;;;;;;;;5075098;28;20675;-70
2023/03/31 09:43:22;;;;;;;15.63;4.33;;;;;;;;;;5075374;28;20206;-70
2023/03/31 09:45:48;;;;;;;16.23;4.17;;;;;;;;;;5075630;28;20178;-70
2023/03/31 09:48:15;;;;;;;9.93;3.57;;;;;;;;;;5075135;28;20181;-70
2023/03/31 09:50:44;;;;;;;11.30;3.80;;;;;;;;;;5075128;28;20292;-70
2023/03/31 09:53:15;;;;;;;10.50;3.90;;;;;;;;;;5075112;28;20544;-70
2023/03/31 09:56:01;;;;;;;10.60;3.40;;;;;;;;;;5075322;28;20208;-70
2023/03/31 09:58:27;;;;;;;7.80;3.23;;;;;;;;;;5075632;28;20177;-69
2023/03/31 10:00:59;;;;;;;19.47;5.40;;;;;;;;;;5076436;28;20202;-70
2023/03/31 10:03:28;;;;;;;12.13;3.90;;;;;;;;;;5075631;28;20232;-70
2023/03/31 10:05:55;;;;;;;12.07;3.63;;;;;;;;;;5074347;28;20173;-70
2023/03/31 10:08:21;;;;;;;16.00;4.50;;;;;;;;;;5056811;28;20185;-70
2023/03/31 10:10:52;;;;;;;11.70;4.00;;;;;;;;;;5056666;28;20208;-70
2023/03/31 10:13:28;;;;;;;12.57;3.70;;;;;;;;;;5056662;28;20170;-70
2023/03/31 10:16:01;;;;;;;15.60;3.63;;;;;;;;;;5074755;28;20166;-70
2023/03/31 10:18:38;;;;;;;11.77;3.83;;;;;;;;;;5074519;28;20241;-70
2023/03/31 10:21:05;;;;;;;15.83;4.20;;;;;;;;;;5074361;28;20226;-70
2023/03/31 10:23:32;;;;;;;11.70;3.37;;;;;;;;;;5056544;28;20317;-70
2023/03/31 10:25:59;;;;;;;15.97;5.17;;;;;;;;;;5056314;28;20554;-71
2023/03/31 10:28:25;;;;;;;12.30;4.03;;;;;;;;;;5074227;28;20194;-70
2023/03/31 10:30:52;;;;;;;14.90;4.03;;;;;;;;;;5074119;28;20212;-70
2023/03/31 10:33:23;;;;;;;15.80;4.37;;;;;;;;;;5074037;28;20262;-71
2023/03/31 10:35:53;;;;;;;20.43;4.60;;;;;;;;;;5056149;28;20178;-70
2023/03/31 10:38:26;;;;;;;15.40;3.97;;;;;;;;;;5074181;28;20178;-70
2023/03/31 10:40:54;;;;;;;12.53;4.37;;;;;;;;;;5056213;28;20201;-70
2023/03/31 10:43:24;;;;;;;14.93;4.50;;;;;;;;;;5074294;28;20184;-70
2023/03/31 10:45:58;;;;;;;19.00;4.60;;;;;;;;;;5056031;28;20670;-70
2023/03/31 10:48:32;;;;;;;10.63;3.43;;;;;;;;;;5074145;28;20154;-70
2023/03/31 10:51:05;;;;;;;13.63;4.20;;;;;;;;;;5056081;28;20213;-71
2023/03/31 10:53:41;;;;;;;12.30;4.13;;;;;;;;;;5074416;28;20251;-70
2023/03/31 10:56:27;;;;;;;5.83;2.90;;;;;;;;;;5056235;28;20272;-70
2023/03/31 10:58:52;;;;;;;10.33;2.50;;;;;;;;;;5073898;28;20169;-70
2023/03/31 11:01:18;;;;;;;6.80;2.47;;;;;;;;;;5056032;28;20208;-70
2023/03/31 11:03:52;;;;;;;8.13;2.47;;;;;;;;;;5073651;28;20280;-70
2023/03/31 11:06:27;;;;;;;7.47;2.60;;;;;;;;;;5074207;28;20170;-70
2023/03/31 11:09:07;;;;;;;11.60;3.13;;;;;;;;;;5055725;28;20185;-70
2023/03/31 11:11:51;;;;;;;7.87;2.10;;;;;;;;;;5073715;28;20189;-71
2023/03/31 11:14:23;;;;;;;7.70;2.33;;;;;;;;;;5073954;28;20612;-68
2023/03/31 11:16:55;;;;;;;7.20;2.00;;;;;;;;;;5073708;28;20542;-68
2023/03/31 11:19:30;;;;;;;4.03;1.93;;;;;;;;;;5072845;28;20194;-68
2023/03/31 11:22:05;;;;;;;6.47;2.20;;;;;;;;;;5055985;28;20594;-69
2023/03/31 11:24:50;;;;;;;9.40;2.57;;;;;;;;;;5055458;28;20173;-71
2023/03/31 11:27:16;;;;;;;4.60;1.60;;;;;;;;;;5073775;28;20186;-68
2023/03/31 11:29:42;;;;;;;6.00;2.47;;;;;;;;;;5073411;28;20204;-69
2023/03/31 11:32:30;;;;;;;5.60;1.93;;;;;;;;;;5073175;28;20206;-69
2023/03/31 11:35:06;;;;;;;5.93;2.10;;;;;;;;;;5074006;28;20197;-69
2023/03/31 11:37:34;;;;;;;7.43;2.30;;;;;;;;;;5074388;28;20206;-68
2023/03/31 11:40:06;;;;;;;6.73;2.83;;;;;;;;;;5055179;28;20225;-68
2023/03/31 11:42:45;;;;;;;6.20;2.07;;;;;;;;;;5073100;28;20201;-68
2023/03/31 11:45:15;;;;;;;7.30;2.30;;;;;;;;;;5054963;28;20232;-69
2023/03/31 11:47:45;;;;;;;8.93;3.00;;;;;;;;;;5054948;28;20181;-69
2023/03/31 11:50:13;;;;;;;5.70;2.60;;;;;;;;;;5073710;28;20190;-69
2023/03/31 11:52:41;;;;;;;7.00;2.73;;;;;;;;;;5072998;28;20182;-68
2023/03/31 11:55:20;;;;;;;7.30;2.30;;;;;;;;;;5054859;28;20628;-69
2023/03/31 11:58:07;;;;;;;6.40;2.77;;;;;;;;;;5072814;28;20197;-69
2023/03/31 12:00:38;;;;;;;5.20;2.30;;;;;;;;;;5048554;28;20217;-69
2023/03/31 12:03:09;;;;;;;5.40;2.13;;;;;;;;;;5054753;28;20208;-69
2023/03/31 12:05:39;;;;;;;6.43;2.30;;;;;;;;;;5054827;28;20209;-69
2023/03/31 12:08:23;;;;;;;5.27;2.13;;;;;;;;;;5073084;28;20170;-69
2023/03/31 12:11:00;;;;;;;11.10;2.80;;;;;;;;;;5072694;28;20205;-69
2023/03/31 12:13:33;;;;;;;5.77;1.90;;;;;;;;;;5072947;28;20244;-68
2023/03/31 12:16:08;;;;;;;7.63;2.47;;;;;;;;;;5072828;28;20162;-68
2023/03/31 12:18:42;;;;;;;10.83;2.67;;;;;;;;;;5054692;28;20182;-68
2023/03/31 12:21:09;;;;;;;7.93;2.77;;;;;;;;;;5072817;28;20222;-68
2023/03/31 12:23:40;;;;;;;11.23;3.03;;;;;;;;;;5054677;28;20185;-69
2023/03/31 12:26:10;;;;;;;9.73;2.83;;;;;;;;;;5055071;28;20166;-68
2023/03/31 12:28:37;;;;;;;9.67;2.23;;;;;;;;;;5073492;28;20170;-69
2023/03/31 12:31:05;;;;;;;10.07;3.30;;;;;;;;;;5075891;28;20300;-69
2023/03/31 12:33:33;;;;;;;10.87;3.33;;;;;;;;;;5058541;28;20173;-69
2023/03/31 12:36:09;;;;;;;14.63;4.23;;;;;;;;;;5058555;28;20182;-70
2023/03/31 12:38:53;;;;;;;10.00;3.80;;;;;;;;;;5076176;28;20173;-69
2023/03/31 12:41:25;;;;;;;6.37;2.70;;;;;;;;;;5076305;28;20314;-69
2023/03/31 12:44:12;;;;;;;12.30;3.40;;;;;;;;;;5076632;28;20162;-70
2023/03/31 12:46:58;;;;;;;11.20;3.60;;;;;;;;;;5062224;28;20224;-69
2023/03/31 12:49:35;;;;;;;9.43;3.43;;;;;;;;;;5076107;28;20193;-69
2023/03/31 12:52:19;;;;;;;7.70;3.47;;;;;;;;;;5058261;28;20683;-69
2023/03/31 12:54:55;;;;;;;12.67;3.97;;;;;;;;;;5076366;28;20177;-69
2023/03/31 12:57:22;;;;;;;8.80;2.80;;;;;;;;;;5076300;28;20523;-69
2023/03/31 13:00:12;;;;;;;7.27;3.07;;;;;;;;;;5076417;28;20228;-69
2023/03/31 13:02:39;;;;;;;11.17;3.47;;;;;;;;;;5058369;28;20169;-69
2023/03/31 13:05:23;;;;;;;9.37;3.40;;;;;;;;;;5075996;28;20542;-69
2023/03/31 13:07:49;;;;;;;8.30;3.10;;;;;;;;;;5076318;28;20189;-70
2023/03/31 13:10:20;;;;;;;12.27;3.40;;;;;;;;;;5076049;28;20284;-70
2023/03/31 13:13:05;;;;;;;9.90;3.20;;;;;;;;;;5076413;28;20231;-69
2023/03/31 13:15:31;;;;;;;8.13;3.10;;;;;;;;;;5077307;28;20222;-69
2023/03/31 13:18:01;;;;;;;7.03;2.53;;;;;;;;;;5077495;28;20178;-69
2023/03/31 13:20:27;;;;;;;8.03;2.40;;;;;;;;;;5057926;28;20308;-69
2023/03/31 13:23:12;;;;;;;8.30;2.90;;;;;;;;;;5057649;28;20213;-69
2023/03/31 13:25:40;;;;;;;8.07;2.97;;;;;;;;;;5075808;28;20174;-70
2023/03/31 13:28:13;;;;;;;7.40;2.33;;;;;;;;;;5075545;28;20185;-69
2023/03/31 13:30:39;;;;;;;7.77;2.47;;;;;;;;;;5075196;28;20209;-69
2023/03/31 13:33:11;;;;;;;7.70;3.00;;;;;;;;;;5057295;28;20720;-70
2023/03/31 13:35:38;;;;;;;5.57;2.20;;;;;;;;;;5075586;28;20177;-69
2023/03/31 13:38:29;;;;;;;7.83;2.57;;;;;;;;;;5075416;28;20182;-70
2023/03/31 13:41:10;;;;;;;10.40;2.60;;;;;;;;;;5074646;28;20205;-69
2023/03/31 13:43:55;;;;;;;12.17;4.30;;;;;;;;;;5057252;28;20174;-69
2023/03/31 13:46:22;;;;;;;5.63;2.13;;;;;;;;;;5075189;28;20166;-70
2023/03/31 13:49:00;;;;;;;5.17;2.70;;;;;;;;;;5075067;28;20171;-69
2023/03/31 13:51:35;;;;;;;3.43;2.30;;;;;;;;;;5056937;28;20210;-69
2023/03/31 13:54:01;;;;;;;7.27;2.13;;;;;;;;;;5057116;28;20198;-69
2023/03/31 13:56:45;;;;;;;9.67;2.57;;;;;;;;;;5075171;28;20253;-69
2023/03/31 13:59:20;;;;;;;6.03;2.20;;;;;;;;;;5075267;28;20173;-70
2023/03/31 14:01:49;;;;;;;7.50;3.17;;;;;;;;;;5075407;28;20568;-69
2023/03/31 14:04:28;;;;;;;10.67;3.87;;;;;;;;;;5075126;28;20251;-71
2023/03/31 14:06:56;;;;;;;6.73;3.07;;;;;;;;;;5057565;28;20177;-71
2023/03/31 14:09:25;;;;;;;8.77;2.77;;;;;;;;;;5075263;28;20170;-71
2023/03/31 14:11:51;;;;;;;6.33;2.33;;;;;;;;;;5057056;28;20292;-71
2023/03/31 14:14:18;;;;;;;6.63;2.80;;;;;;;;;;5057756;28;20631;-71
2023/03/31 14:16:46;;;;;;;6.57;2.40;;;;;;;;;;5074554;28;20185;-71
2023/03/31 14:19:28;;;;;;;7.00;2.50;;;;;;;;;;5074362;28;20282;-71
2023/03/31 14:22:02;;;;;;;8.30;2.83;;;;;;;;;;5074702;28;20249;-71
2023/03/31 14:24:36;;;;;;;8.43;2.40;;;;;;;;;;5056745;28;20208;-70
2023/03/31 14:27:25;;;;;;;8.17;3.00;;;;;;;;;;5074488;28;20173;-70
2023/03/31 14:30:11;;;;;;;7.43;2.60;;;;;;;;;;5063877;28;20233;-72
2023/03/31 14:32:46;;;;;;;6.40;2.60;;;;;;;;;;5056487;28;20198;-70
2023/03/31 14:35:16;;;;;;;3.43;1.77;;;;;;;;;;5074491;28;20627;-70
2023/03/31 14:37:42;;;;;;;3.37;1.93;;;;;;;;;;5074255;28;20166;-70
2023/03/31 14:40:14;;;;;;;8.50;2.40;;;;;;;;;;5074054;28;20190;-70
2023/03/31 14:42:41;;;;;;;10.23;2.77;;;;;;;;;;5074540;28;20188;-69
2023/03/31 14:45:24;;;;;;;3.33;1.97;;;;;;;;;;5074216;28;20184;-69
2023/03/31 14:47:56;;;;;;;8.67;3.03;;;;;;;;;;5056151;28;20561;-69
2023/03/31 14:50:27;;;;;;;11.93;2.80;;;;;;;;;;5056083;28;20625;-69
2023/03/31 14:52:54;;;;;;;12.83;3.30;;;;;;;;;;5074571;28;20166;-69